sensor_id;sensor_type;location;lat;lon;timestamp;pressure;altitude;pressure_sealevel;temperature;humidity
10464;BME280;5279;42.048;24.638;2022-10-10T00:01:59;98162.28;;;14.07;89.99
10464;BME280;5279;42.048;24.638;2022-10-10T00:04:26;98164.94;;;14.07;89.94
10464;BME280;5279;42.048;24.638;2022-10-10T00:06:54;98163.28;;;14.06;89.92
10464;BME280;5279;42.048;24.638;2022-10-10T00:09:21;98159.00;;;14.13;89.00
10464;BME280;5279;42.048;24.638;2022-10-10T00:11:48;98169.75;;;13.86;91.87
10464;BME280;5279;42.048;24.638;2022-10-10T00:14:14;98175.78;;;13.88;92.07
10464;BME280;5279;42.048;24.638;2022-10-10T00:16:41;98171.81;;;13.92;93.65
10464;BME280;5279;42.048;24.638;2022-10-10T00:19:08;98176.81;;;13.95;92.29
10464;BME280;5279;42.048;24.638;2022-10-10T00:21:35;98180.75;;;14.01;91.33
10464;BME280;5279;42.048;24.638;2022-10-10T00:24:04;98176.44;;;13.90;92.87
10464;BME280;5279;42.048;24.638;2022-10-10T00:26:30;98184.16;;;13.93;93.18
10464;BME280;5279;42.048;24.638;2022-10-10T00:28:57;98181.53;;;14.01;91.28
10464;BME280;5279;42.048;24.638;2022-10-10T00:31:24;98178.59;;;14.04;91.43
10464;BME280;5279;42.048;24.638;2022-10-10T00:33:51;98177.59;;;14.05;91.07
10464;BME280;5279;42.048;24.638;2022-10-10T00:36:18;98180.25;;;14.05;90.93
10464;BME280;5279;42.048;24.638;2022-10-10T00:38:45;98180.31;;;14.13;91.21
10464;BME280;5279;42.048;24.638;2022-10-10T00:41:14;98176.44;;;14.08;91.61
10464;BME280;5279;42.048;24.638;2022-10-10T00:43:40;98182.56;;;14.00;92.16
10464;BME280;5279;42.048;24.638;2022-10-10T00:46:07;98175.59;;;14.07;91.43
10464;BME280;5279;42.048;24.638;2022-10-10T00:48:36;98183.09;;;14.21;88.15
10464;BME280;5279;42.048;24.638;2022-10-10T00:51:07;98183.31;;;14.28;89.31
10464;BME280;5279;42.048;24.638;2022-10-10T00:53:38;98175.47;;;14.27;88.81
10464;BME280;5279;42.048;24.638;2022-10-10T00:56:08;98179.13;;;14.26;89.21
10464;BME280;5279;42.048;24.638;2022-10-10T00:58:40;98175.09;;;14.21;89.43
10464;BME280;5279;42.048;24.638;2022-10-10T01:01:08;98170.97;;;14.09;91.25
10464;BME280;5279;42.048;24.638;2022-10-10T01:03:35;98180.88;;;14.17;91.19
10464;BME280;5279;42.048;24.638;2022-10-10T01:06:02;98169.22;;;14.18;89.79
10464;BME280;5279;42.048;24.638;2022-10-10T01:08:30;98182.31;;;14.11;91.13
10464;BME280;5279;42.048;24.638;2022-10-10T01:11:09;98179.34;;;14.14;91.61
10464;BME280;5279;42.048;24.638;2022-10-10T01:13:48;98175.47;;;14.09;91.13
10464;BME280;5279;42.048;24.638;2022-10-10T01:16:24;98170.28;;;14.07;91.97
10464;BME280;5279;42.048;24.638;2022-10-10T01:18:58;98176.38;;;14.17;91.41
10464;BME280;5279;42.048;24.638;2022-10-10T01:21:34;98177.91;;;14.02;92.61
10464;BME280;5279;42.048;24.638;2022-10-10T01:27:20;98175.25;;;13.85;94.87
10464;BME280;5279;42.048;24.638;2022-10-10T01:29:52;98184.97;;;13.76;96.44
10464;BME280;5279;42.048;24.638;2022-10-10T01:32:27;98179.78;;;13.75;96.08
10464;BME280;5279;42.048;24.638;2022-10-10T01:37:52;98191.28;;;13.75;95.20
10464;BME280;5279;42.048;24.638;2022-10-10T01:40:25;98181.53;;;13.66;95.68
10464;BME280;5279;42.048;24.638;2022-10-10T01:42:56;98180.44;;;13.59;98.90
10464;BME280;5279;42.048;24.638;2022-10-10T01:45:26;98203.44;;;13.60;99.46
10464;BME280;5279;42.048;24.638;2022-10-10T01:47:59;98196.81;;;13.64;99.10
10464;BME280;5279;42.048;24.638;2022-10-10T01:50:27;98199.53;;;13.54;100.00
10464;BME280;5279;42.048;24.638;2022-10-10T01:53:03;98200.34;;;13.64;100.00
10464;BME280;5279;42.048;24.638;2022-10-10T01:58:48;98208.94;;;13.76;97.73
10464;BME280;5279;42.048;24.638;2022-10-10T02:01:25;98213.19;;;13.69;98.44
10464;BME280;5279;42.048;24.638;2022-10-10T02:04:01;98211.78;;;13.65;99.50
10464;BME280;5279;42.048;24.638;2022-10-10T02:06:33;98223.00;;;13.68;98.72
10464;BME280;5279;42.048;24.638;2022-10-10T02:09:04;98218.81;;;13.66;98.82
10464;BME280;5279;42.048;24.638;2022-10-10T02:11:35;98218.50;;;13.69;98.15
10464;BME280;5279;42.048;24.638;2022-10-10T02:14:09;98212.81;;;13.64;98.29
10464;BME280;5279;42.048;24.638;2022-10-10T02:16:41;98218.00;;;13.56;100.00
10464;BME280;5279;42.048;24.638;2022-10-10T02:19:13;98225.03;;;13.57;99.38
10464;BME280;5279;42.048;24.638;2022-10-10T02:21:50;98218.38;;;13.43;100.00
10464;BME280;5279;42.048;24.638;2022-10-10T02:24:19;98218.84;;;13.29;100.00
10464;BME280;5279;42.048;24.638;2022-10-10T02:26:52;98220.97;;;13.26;100.00
10464;BME280;5279;42.048;24.638;2022-10-10T02:29:24;98223.19;;;13.30;100.00
10464;BME280;5279;42.048;24.638;2022-10-10T02:31:57;98231.91;;;13.23;100.00
10464;BME280;5279;42.048;24.638;2022-10-10T02:34:31;98238.09;;;13.13;100.00
10464;BME280;5279;42.048;24.638;2022-10-10T02:37:02;98237.28;;;13.13;100.00
10464;BME280;5279;42.048;24.638;2022-10-10T02:39:34;98239.38;;;13.09;100.00
10464;BME280;5279;42.048;24.638;2022-10-10T02:42:02;98248.47;;;13.07;100.00
10464;BME280;5279;42.048;24.638;2022-10-10T02:44:31;98237.69;;;13.08;100.00
10464;BME280;5279;42.048;24.638;2022-10-10T02:46:59;98245.38;;;13.11;100.00
10464;BME280;5279;42.048;24.638;2022-10-10T02:49:27;98240.34;;;12.99;100.00
10464;BME280;5279;42.048;24.638;2022-10-10T02:51:55;98239.50;;;12.98;100.00
10464;BME280;5279;42.048;24.638;2022-10-10T02:54:22;98250.44;;;12.95;100.00
10464;BME280;5279;42.048;24.638;2022-10-10T02:56:49;98246.25;;;12.83;100.00
10464;BME280;5279;42.048;24.638;2022-10-10T02:59:16;98245.97;;;12.86;100.00
10464;BME280;5279;42.048;24.638;2022-10-10T03:01:43;98246.22;;;13.02;100.00
10464;BME280;5279;42.048;24.638;2022-10-10T03:04:12;98247.94;;;12.94;100.00
10464;BME280;5279;42.048;24.638;2022-10-10T03:06:38;98245.69;;;12.89;100.00
10464;BME280;5279;42.048;24.638;2022-10-10T03:09:05;98248.06;;;12.92;100.00
10464;BME280;5279;42.048;24.638;2022-10-10T03:11:32;98252.38;;;13.03;100.00
10464;BME280;5279;42.048;24.638;2022-10-10T03:13:59;98238.41;;;12.91;100.00
10464;BME280;5279;42.048;24.638;2022-10-10T03:16:26;98247.38;;;12.90;100.00
10464;BME280;5279;42.048;24.638;2022-10-10T03:18:52;98249.06;;;12.91;100.00
10464;BME280;5279;42.048;24.638;2022-10-10T03:21:21;98252.97;;;12.87;100.00
10464;BME280;5279;42.048;24.638;2022-10-10T03:23:48;98257.03;;;12.91;100.00
10464;BME280;5279;42.048;24.638;2022-10-10T03:26:14;98258.84;;;13.00;100.00
10464;BME280;5279;42.048;24.638;2022-10-10T03:28:41;98264.28;;;12.99;100.00
10464;BME280;5279;42.048;24.638;2022-10-10T03:31:10;98275.19;;;13.05;100.00
10464;BME280;5279;42.048;24.638;2022-10-10T03:33:37;98258.00;;;13.09;100.00
10464;BME280;5279;42.048;24.638;2022-10-10T03:36:04;98260.09;;;13.16;100.00
10464;BME280;5279;42.048;24.638;2022-10-10T03:38:33;98260.78;;;13.18;100.00
10464;BME280;5279;42.048;24.638;2022-10-10T03:41:00;98271.94;;;13.31;100.00
10464;BME280;5279;42.048;24.638;2022-10-10T03:43:26;98271.69;;;13.14;100.00
10464;BME280;5279;42.048;24.638;2022-10-10T03:45:53;98273.53;;;13.14;100.00
10464;BME280;5279;42.048;24.638;2022-10-10T03:48:20;98266.97;;;13.08;100.00
10464;BME280;5279;42.048;24.638;2022-10-10T03:50:47;98272.97;;;13.10;100.00
10464;BME280;5279;42.048;24.638;2022-10-10T03:53:14;98271.13;;;13.01;100.00
10464;BME280;5279;42.048;24.638;2022-10-10T03:55:42;98263.88;;;13.03;100.00
10464;BME280;5279;42.048;24.638;2022-10-10T03:58:09;98259.13;;;12.97;100.00
10464;BME280;5279;42.048;24.638;2022-10-10T04:00:37;98258.84;;;12.91;100.00
10464;BME280;5279;42.048;24.638;2022-10-10T04:03:04;98264.28;;;12.89;100.00
10464;BME280;5279;42.048;24.638;2022-10-10T04:05:33;98259.72;;;12.82;100.00
10464;BME280;5279;42.048;24.638;2022-10-10T04:08:00;98262.47;;;12.90;100.00
10464;BME280;5279;42.048;24.638;2022-10-10T04:10:27;98267.22;;;12.96;100.00
10464;BME280;5279;42.048;24.638;2022-10-10T04:12:55;98263.44;;;12.98;100.00
10464;BME280;5279;42.048;24.638;2022-10-10T04:15:23;98268.91;;;13.06;100.00
10464;BME280;5279;42.048;24.638;2022-10-10T04:17:50;98273.50;;;13.04;100.00
10464;BME280;5279;42.048;24.638;2022-10-10T04:20:17;98259.69;;;12.91;100.00
10464;BME280;5279;42.048;24.638;2022-10-10T04:22:44;98271.41;;;12.98;100.00
10464;BME280;5279;42.048;24.638;2022-10-10T04:25:11;98279.00;;;12.93;100.00
10464;BME280;5279;42.048;24.638;2022-10-10T04:27:38;98272.84;;;12.93;100.00
10464;BME280;5279;42.048;24.638;2022-10-10T04:30:07;98269.75;;;12.97;100.00
10464;BME280;5279;42.048;24.638;2022-10-10T04:32:34;98267.78;;;12.99;100.00
10464;BME280;5279;42.048;24.638;2022-10-10T04:35:01;98273.13;;;12.99;100.00
10464;BME280;5279;42.048;24.638;2022-10-10T04:37:28;98272.81;;;13.02;100.00
10464;BME280;5279;42.048;24.638;2022-10-10T04:39:55;98279.00;;;12.93;100.00
10464;BME280;5279;42.048;24.638;2022-10-10T04:42:22;98268.63;;;13.00;100.00
10464;BME280;5279;42.048;24.638;2022-10-10T04:44:48;98272.81;;;13.02;100.00
10464;BME280;5279;42.048;24.638;2022-10-10T04:47:17;98278.16;;;13.02;100.00
10464;BME280;5279;42.048;24.638;2022-10-10T04:49:43;98275.47;;;13.02;100.00
10464;BME280;5279;42.048;24.638;2022-10-10T04:52:11;98279.00;;;13.03;100.00
10464;BME280;5279;42.048;24.638;2022-10-10T04:54:38;98291.31;;;13.04;100.00
10464;BME280;5279;42.048;24.638;2022-10-10T04:57:05;98289.66;;;13.12;100.00
10464;BME280;5279;42.048;24.638;2022-10-10T04:59:32;98288.88;;;13.30;100.00
10464;BME280;5279;42.048;24.638;2022-10-10T05:01:58;98291.78;;;13.46;100.00
10464;BME280;5279;42.048;24.638;2022-10-10T05:04:27;98285.78;;;13.71;100.00
10464;BME280;5279;42.048;24.638;2022-10-10T05:06:53;98295.16;;;14.02;100.00
10464;BME280;5279;42.048;24.638;2022-10-10T05:09:20;98298.94;;;14.27;97.23
10464;BME280;5279;42.048;24.638;2022-10-10T05:11:47;98315.88;;;14.53;94.41
10464;BME280;5279;42.048;24.638;2022-10-10T05:14:14;98307.06;;;14.70;91.96
10464;BME280;5279;42.048;24.638;2022-10-10T05:16:41;98308.63;;;14.81;90.25
10464;BME280;5279;42.048;24.638;2022-10-10T05:19:07;98310.31;;;15.00;88.93
10464;BME280;5279;42.048;24.638;2022-10-10T05:21:36;98310.25;;;15.17;86.97
10464;BME280;5279;42.048;24.638;2022-10-10T05:24:03;98307.22;;;15.12;87.61
10464;BME280;5279;42.048;24.638;2022-10-10T05:26:30;98320.44;;;15.40;86.18
10464;BME280;5279;42.048;24.638;2022-10-10T05:28:57;98317.72;;;15.57;85.59
10464;BME280;5279;42.048;24.638;2022-10-10T05:31:24;98321.06;;;15.85;83.55
10464;BME280;5279;42.048;24.638;2022-10-10T05:33:51;98316.88;;;15.82;80.99
10464;BME280;5279;42.048;24.638;2022-10-10T05:36:18;98327.81;;;16.05;80.08
10464;BME280;5279;42.048;24.638;2022-10-10T05:38:46;98332.25;;;16.30;75.81
10464;BME280;5279;42.048;24.638;2022-10-10T05:41:13;98332.59;;;16.35;74.46
10464;BME280;5279;42.048;24.638;2022-10-10T05:43:40;98332.59;;;16.35;73.97
10464;BME280;5279;42.048;24.638;2022-10-10T05:46:07;98336.81;;;16.46;74.44
10464;BME280;5279;42.048;24.638;2022-10-10T05:48:34;98333.03;;;16.65;72.67
10464;BME280;5279;42.048;24.638;2022-10-10T05:51:01;98333.75;;;16.83;71.81
10464;BME280;5279;42.048;24.638;2022-10-10T05:53:28;98335.09;;;16.87;71.87
10464;BME280;5279;42.048;24.638;2022-10-10T05:55:59;98339.59;;;17.03;73.35
10464;BME280;5279;42.048;24.638;2022-10-10T05:58:26;98341.13;;;17.29;71.49
10464;BME280;5279;42.048;24.638;2022-10-10T06:00:53;98349.13;;;17.37;69.21
10464;BME280;5279;42.048;24.638;2022-10-10T06:03:20;98345.09;;;17.49;67.50
10464;BME280;5279;42.048;24.638;2022-10-10T06:05:50;98337.88;;;17.42;69.04
10464;BME280;5279;42.048;24.638;2022-10-10T06:08:16;98345.78;;;17.43;69.37
10464;BME280;5279;42.048;24.638;2022-10-10T06:10:44;98335.41;;;17.00;69.48
10464;BME280;5279;42.048;24.638;2022-10-10T06:13:15;98344.47;;;16.99;70.89
10464;BME280;5279;42.048;24.638;2022-10-10T06:15:42;98344.09;;;16.94;73.31
10464;BME280;5279;42.048;24.638;2022-10-10T06:18:10;98342.09;;;16.88;75.47
10464;BME280;5279;42.048;24.638;2022-10-10T06:20:38;98351.47;;;17.00;75.86
10464;BME280;5279;42.048;24.638;2022-10-10T06:23:06;98349.97;;;17.22;73.59
10464;BME280;5279;42.048;24.638;2022-10-10T06:25:35;98346.09;;;17.48;72.22
10464;BME280;5279;42.048;24.638;2022-10-10T06:28:02;98351.97;;;17.68;71.67
10464;BME280;5279;42.048;24.638;2022-10-10T06:30:31;98344.00;;;17.99;68.75
10464;BME280;5279;42.048;24.638;2022-10-10T06:32:59;98352.91;;;18.30;65.60
10464;BME280;5279;42.048;24.638;2022-10-10T06:35:26;98348.88;;;18.34;63.84
10464;BME280;5279;42.048;24.638;2022-10-10T06:37:53;98343.47;;;18.50;63.77
10464;BME280;5279;42.048;24.638;2022-10-10T06:40:19;98353.03;;;18.76;62.68
10464;BME280;5279;42.048;24.638;2022-10-10T06:42:46;98351.94;;;18.85;62.27
10464;BME280;5279;42.048;24.638;2022-10-10T06:45:13;98358.56;;;18.97;63.58
10464;BME280;5279;42.048;24.638;2022-10-10T06:47:41;98350.16;;;19.00;62.01
10464;BME280;5279;42.048;24.638;2022-10-10T06:50:08;98352.22;;;18.98;62.76
10464;BME280;5279;42.048;24.638;2022-10-10T06:52:35;98359.94;;;19.16;61.56
10464;BME280;5279;42.048;24.638;2022-10-10T06:55:03;98364.66;;;19.36;61.19
10464;BME280;5279;42.048;24.638;2022-10-10T06:57:30;98361.38;;;19.49;60.86
10464;BME280;5279;42.048;24.638;2022-10-10T06:59:57;98366.03;;;19.55;60.00
10464;BME280;5279;42.048;24.638;2022-10-10T07:02:24;98369.41;;;19.72;59.08
10464;BME280;5279;42.048;24.638;2022-10-10T07:04:53;98365.78;;;19.64;57.96
10464;BME280;5279;42.048;24.638;2022-10-10T07:07:19;98371.19;;;19.94;57.92
10464;BME280;5279;42.048;24.638;2022-10-10T07:09:46;98371.00;;;20.10;57.85
10464;BME280;5279;42.048;24.638;2022-10-10T07:12:13;98377.09;;;20.18;57.14
10464;BME280;5279;42.048;24.638;2022-10-10T07:14:40;98377.69;;;20.14;56.94
10464;BME280;5279;42.048;24.638;2022-10-10T07:17:07;98367.84;;;20.21;56.67
10464;BME280;5279;42.048;24.638;2022-10-10T07:19:35;98376.28;;;20.47;55.61
10464;BME280;5279;42.048;24.638;2022-10-10T07:22:04;98367.16;;;20.63;55.33
10464;BME280;5279;42.048;24.638;2022-10-10T07:24:31;98372.88;;;20.75;55.38
10464;BME280;5279;42.048;24.638;2022-10-10T07:26:58;98369.44;;;20.81;56.13
10464;BME280;5279;42.048;24.638;2022-10-10T07:29:25;98368.63;;;20.65;53.65
10464;BME280;5279;42.048;24.638;2022-10-10T07:31:54;98363.50;;;20.70;54.44
10464;BME280;5279;42.048;24.638;2022-10-10T07:34:22;98380.41;;;21.15;55.17
10464;BME280;5279;42.048;24.638;2022-10-10T07:36:49;98383.72;;;21.38;52.91
10464;BME280;5279;42.048;24.638;2022-10-10T07:39:19;98385.94;;;21.56;50.56
10464;BME280;5279;42.048;24.638;2022-10-10T07:41:46;98385.03;;;21.42;51.70
10464;BME280;5279;42.048;24.638;2022-10-10T07:44:14;98385.63;;;21.65;51.16
10464;BME280;5279;42.048;24.638;2022-10-10T07:46:40;98388.56;;;21.70;49.52
10464;BME280;5279;42.048;24.638;2022-10-10T07:49:07;98382.94;;;21.44;50.07
10464;BME280;5279;42.048;24.638;2022-10-10T07:51:35;98390.81;;;21.39;50.46
10464;BME280;5279;42.048;24.638;2022-10-10T07:54:02;98387.25;;;21.39;50.24
10464;BME280;5279;42.048;24.638;2022-10-10T07:56:31;98392.56;;;21.53;51.41
10464;BME280;5279;42.048;24.638;2022-10-10T07:58:58;98392.03;;;21.37;50.46
10464;BME280;5279;42.048;24.638;2022-10-10T08:01:25;98390.41;;;21.42;50.69
10464;BME280;5279;42.048;24.638;2022-10-10T08:03:54;98401.75;;;21.59;51.08
10464;BME280;5279;42.048;24.638;2022-10-10T08:06:21;98394.69;;;21.86;50.83
10464;BME280;5279;42.048;24.638;2022-10-10T08:08:48;98391.50;;;21.75;49.96
10464;BME280;5279;42.048;24.638;2022-10-10T08:11:15;98386.28;;;21.95;50.14
10464;BME280;5279;42.048;24.638;2022-10-10T08:13:44;98398.19;;;22.01;49.08
10464;BME280;5279;42.048;24.638;2022-10-10T08:16:11;98403.09;;;22.25;49.43
10464;BME280;5279;42.048;24.638;2022-10-10T08:18:38;98386.94;;;22.38;48.07
10464;BME280;5279;42.048;24.638;2022-10-10T08:21:07;98394.81;;;22.67;48.05
10464;BME280;5279;42.048;24.638;2022-10-10T08:23:34;98386.75;;;22.80;47.36
10464;BME280;5279;42.048;24.638;2022-10-10T08:26:03;98386.59;;;22.89;47.27
10464;BME280;5279;42.048;24.638;2022-10-10T08:28:32;98386.38;;;22.97;46.69
10464;BME280;5279;42.048;24.638;2022-10-10T08:31:03;98387.47;;;23.09;47.25
10464;BME280;5279;42.048;24.638;2022-10-10T08:33:30;98383.88;;;22.95;46.80
10464;BME280;5279;42.048;24.638;2022-10-10T08:35:57;98388.78;;;23.39;46.98
10464;BME280;5279;42.048;24.638;2022-10-10T08:38:25;98384.44;;;23.58;45.46
10464;BME280;5279;42.048;24.638;2022-10-10T08:40:54;98386.91;;;23.72;44.70
10464;BME280;5279;42.048;24.638;2022-10-10T08:43:28;98380.88;;;23.90;44.72
10464;BME280;5279;42.048;24.638;2022-10-10T08:45:58;98377.06;;;24.30;44.09
10464;BME280;5279;42.048;24.638;2022-10-10T08:48:32;98376.81;;;24.45;42.60
10464;BME280;5279;42.048;24.638;2022-10-10T08:51:03;98381.13;;;25.10;41.68
10464;BME280;5279;42.048;24.638;2022-10-10T08:53:35;98367.09;;;25.51;43.68
10464;BME280;5279;42.048;24.638;2022-10-10T08:56:06;98371.97;;;26.35;39.74
10464;BME280;5279;42.048;24.638;2022-10-10T08:58:36;98365.19;;;27.22;37.08
10464;BME280;5279;42.048;24.638;2022-10-10T09:01:07;98364.97;;;27.64;37.12
10464;BME280;5279;42.048;24.638;2022-10-10T09:03:41;98366.72;;;28.52;35.39
10464;BME280;5279;42.048;24.638;2022-10-10T09:06:21;98368.16;;;28.66;34.41
10464;BME280;5279;42.048;24.638;2022-10-10T09:08:56;98352.91;;;29.55;33.08
10464;BME280;5279;42.048;24.638;2022-10-10T09:11:41;98359.50;;;29.87;32.52
10464;BME280;5279;42.048;24.638;2022-10-10T09:14:22;98352.81;;;30.76;31.60
10464;BME280;5279;42.048;24.638;2022-10-10T09:16:57;98350.47;;;30.85;31.39
10464;BME280;5279;42.048;24.638;2022-10-10T09:19:35;98355.50;;;30.11;31.05
10464;BME280;5279;42.048;24.638;2022-10-10T09:22:11;98359.47;;;30.04;31.62
10464;BME280;5279;42.048;24.638;2022-10-10T09:24:42;98361.13;;;30.05;31.67
10464;BME280;5279;42.048;24.638;2022-10-10T09:27:14;98368.22;;;30.22;30.77
10464;BME280;5279;42.048;24.638;2022-10-10T09:29:46;98363.28;;;30.58;30.68
10464;BME280;5279;42.048;24.638;2022-10-10T09:32:17;98358.38;;;30.60;30.52
10464;BME280;5279;42.048;24.638;2022-10-10T09:34:50;98351.13;;;30.49;30.42
10464;BME280;5279;42.048;24.638;2022-10-10T09:37:22;98348.69;;;30.14;30.63
10464;BME280;5279;42.048;24.638;2022-10-10T09:39:54;98350.25;;;28.98;31.75
10464;BME280;5279;42.048;24.638;2022-10-10T09:42:28;98348.59;;;28.46;33.70
10464;BME280;5279;42.048;24.638;2022-10-10T09:44:56;98348.53;;;27.71;33.92
10464;BME280;5279;42.048;24.638;2022-10-10T09:47:23;98350.75;;;27.62;34.82
10464;BME280;5279;42.048;24.638;2022-10-10T09:49:51;98353.38;;;28.04;34.92
10464;BME280;5279;42.048;24.638;2022-10-10T09:52:24;98335.56;;;29.16;32.45
10464;BME280;5279;42.048;24.638;2022-10-10T09:55:02;98346.16;;;30.46;30.33
10464;BME280;5279;42.048;24.638;2022-10-10T09:57:34;98353.09;;;31.50;28.95
10464;BME280;5279;42.048;24.638;2022-10-10T10:00:25;98347.66;;;31.87;27.88
10464;BME280;5279;42.048;24.638;2022-10-10T10:03:03;98344.53;;;31.47;28.07
10464;BME280;5279;42.048;24.638;2022-10-10T10:05:32;98334.81;;;30.59;29.38
10464;BME280;5279;42.048;24.638;2022-10-10T10:07:59;98340.28;;;30.59;29.72
10464;BME280;5279;42.048;24.638;2022-10-10T10:10:26;98338.41;;;30.21;30.59
10464;BME280;5279;42.048;24.638;2022-10-10T10:12:55;98338.59;;;30.14;30.62
10464;BME280;5279;42.048;24.638;2022-10-10T10:15:24;98350.75;;;29.85;30.06
10464;BME280;5279;42.048;24.638;2022-10-10T10:18:08;98335.72;;;29.71;30.98
10464;BME280;5279;42.048;24.638;2022-10-10T10:20:37;98331.47;;;29.80;30.95
10464;BME280;5279;42.048;24.638;2022-10-10T10:23:22;98328.25;;;30.38;30.65
10464;BME280;5279;42.048;24.638;2022-10-10T10:25:59;98330.22;;;30.86;29.54
10464;BME280;5279;42.048;24.638;2022-10-10T10:28:27;98325.63;;;31.77;28.35
10464;BME280;5279;42.048;24.638;2022-10-10T10:30:56;98329.16;;;31.40;28.63
10464;BME280;5279;42.048;24.638;2022-10-10T10:33:34;98321.72;;;31.36;28.10
10464;BME280;5279;42.048;24.638;2022-10-10T10:36:14;98322.75;;;30.55;28.87
10464;BME280;5279;42.048;24.638;2022-10-10T10:38:49;98312.69;;;30.39;29.22
10464;BME280;5279;42.048;24.638;2022-10-10T10:41:22;98318.00;;;30.28;29.99
10464;BME280;5279;42.048;24.638;2022-10-10T10:44:11;98312.25;;;30.08;29.90
10464;BME280;5279;42.048;24.638;2022-10-10T10:46:55;98311.91;;;29.21;31.88
10464;BME280;5279;42.048;24.638;2022-10-10T10:49:28;98311.44;;;29.58;32.16
10464;BME280;5279;42.048;24.638;2022-10-10T10:52:21;98305.22;;;28.84;32.75
10464;BME280;5279;42.048;24.638;2022-10-10T10:55:08;98290.25;;;28.07;33.40
10464;BME280;5279;42.048;24.638;2022-10-10T10:57:48;98302.00;;;27.84;33.99
10464;BME280;5279;42.048;24.638;2022-10-10T11:00:19;98290.19;;;27.26;35.21
10464;BME280;5279;42.048;24.638;2022-10-10T11:02:53;98284.44;;;26.92;35.30
10464;BME280;5279;42.048;24.638;2022-10-10T11:05:34;98280.59;;;26.82;35.97
10464;BME280;5279;42.048;24.638;2022-10-10T11:08:19;98281.44;;;26.34;36.50
10464;BME280;5279;42.048;24.638;2022-10-10T11:10:56;98282.03;;;26.00;37.63
10464;BME280;5279;42.048;24.638;2022-10-10T11:13:32;98275.69;;;25.88;38.00
10464;BME280;5279;42.048;24.638;2022-10-10T11:16:07;98276.94;;;25.67;38.33
10464;BME280;5279;42.048;24.638;2022-10-10T11:18:39;98283.28;;;25.61;39.42
10464;BME280;5279;42.048;24.638;2022-10-10T11:21:11;98277.41;;;25.64;38.63
10464;BME280;5279;42.048;24.638;2022-10-10T11:23:44;98284.03;;;25.50;38.46
10464;BME280;5279;42.048;24.638;2022-10-10T11:26:19;98283.81;;;25.45;39.61
10464;BME280;5279;42.048;24.638;2022-10-10T11:28:49;98272.78;;;25.40;38.59
10464;BME280;5279;42.048;24.638;2022-10-10T11:31:22;98279.56;;;25.31;39.06
10464;BME280;5279;42.048;24.638;2022-10-10T11:33:53;98278.16;;;25.53;38.56
10464;BME280;5279;42.048;24.638;2022-10-10T11:36:25;98273.53;;;25.72;38.90
10464;BME280;5279;42.048;24.638;2022-10-10T11:38:58;98272.44;;;25.79;38.34
10464;BME280;5279;42.048;24.638;2022-10-10T11:41:31;98267.09;;;26.09;37.61
10464;BME280;5279;42.048;24.638;2022-10-10T11:44:04;98261.50;;;26.40;37.55
10464;BME280;5279;42.048;24.638;2022-10-10T11:46:39;98268.59;;;26.71;36.25
10464;BME280;5279;42.048;24.638;2022-10-10T11:49:15;98259.25;;;26.67;36.50
10464;BME280;5279;42.048;24.638;2022-10-10T11:52:02;98257.56;;;26.66;36.97
10464;BME280;5279;42.048;24.638;2022-10-10T11:54:41;98254.09;;;26.77;36.21
10464;BME280;5279;42.048;24.638;2022-10-10T11:57:15;98246.09;;;26.82;36.00
10464;BME280;5279;42.048;24.638;2022-10-10T11:59:46;98248.78;;;26.52;36.05
10464;BME280;5279;42.048;24.638;2022-10-10T12:02:17;98239.94;;;25.91;37.29
10464;BME280;5279;42.048;24.638;2022-10-10T12:04:46;98233.81;;;26.14;37.92
10464;BME280;5279;42.048;24.638;2022-10-10T12:07:18;98246.53;;;26.20;37.83
10464;BME280;5279;42.048;24.638;2022-10-10T12:09:52;98238.59;;;26.18;37.69
10464;BME280;5279;42.048;24.638;2022-10-10T12:12:24;98231.25;;;26.00;37.15
10464;BME280;5279;42.048;24.638;2022-10-10T12:14:57;98250.97;;;25.96;37.57
10464;BME280;5279;42.048;24.638;2022-10-10T12:17:26;98231.78;;;25.73;38.19
10464;BME280;5279;42.048;24.638;2022-10-10T12:19:54;98241.59;;;25.74;37.93
10464;BME280;5279;42.048;24.638;2022-10-10T12:22:27;98221.75;;;25.55;38.10
10464;BME280;5279;42.048;24.638;2022-10-10T12:25:22;98231.25;;;25.64;37.85
10464;BME280;5279;42.048;24.638;2022-10-10T12:28:22;98233.66;;;25.54;37.34
10464;BME280;5279;42.048;24.638;2022-10-10T12:31:18;98231.16;;;25.52;37.94
10464;BME280;5279;42.048;24.638;2022-10-10T12:34:02;98227.25;;;25.42;38.33
10464;BME280;5279;42.048;24.638;2022-10-10T12:36:57;98225.69;;;25.10;38.60
10464;BME280;5279;42.048;24.638;2022-10-10T12:39:37;98230.53;;;25.08;39.21
10464;BME280;5279;42.048;24.638;2022-10-10T12:42:27;98232.97;;;24.84;39.23
10464;BME280;5279;42.048;24.638;2022-10-10T12:44:54;98232.84;;;24.66;39.63
10464;BME280;5279;42.048;24.638;2022-10-10T12:47:30;98230.94;;;24.42;40.88
10464;BME280;5279;42.048;24.638;2022-10-10T12:50:00;98224.81;;;24.15;40.59
10464;BME280;5279;42.048;24.638;2022-10-10T12:52:29;98220.25;;;24.03;40.98
10464;BME280;5279;42.048;24.638;2022-10-10T12:55:03;98231.19;;;23.83;40.78
10464;BME280;5279;42.048;24.638;2022-10-10T12:57:35;98235.34;;;23.72;40.70
10464;BME280;5279;42.048;24.638;2022-10-10T13:00:05;98229.34;;;23.70;41.85
10464;BME280;5279;42.048;24.638;2022-10-10T13:02:32;98231.25;;;23.50;42.58
10464;BME280;5279;42.048;24.638;2022-10-10T13:05:01;98235.00;;;23.49;41.37
10464;BME280;5279;42.048;24.638;2022-10-10T13:07:29;98233.75;;;23.58;41.41
10464;BME280;5279;42.048;24.638;2022-10-10T13:10:05;98233.22;;;23.87;41.43
10464;BME280;5279;42.048;24.638;2022-10-10T13:12:34;98228.91;;;24.31;40.13
10464;BME280;5279;42.048;24.638;2022-10-10T13:15:01;98215.19;;;24.57;39.67
10464;BME280;5279;42.048;24.638;2022-10-10T13:17:29;98211.25;;;24.53;41.17
10464;BME280;5279;42.048;24.638;2022-10-10T13:19:57;98203.44;;;24.38;40.71
10464;BME280;5279;42.048;24.638;2022-10-10T13:22:25;98193.84;;;24.42;40.03
10464;BME280;5279;42.048;24.638;2022-10-10T13:24:53;98198.03;;;24.70;38.93